Time;durP1;ratioP1;P1;durP2;ratioP2;P2;SDS_P1;SDS_P2;PMS_P1;PMS_P2;Temp;Humidity;BMP_temperature;BMP_pressure;BME280_temperature;BME280_humidity;BME280_pressure;Samples;Min_cycle;Max_cycle;Signal;HPM_P1;HPM_P2
2023/11/16 00:01:52;;;;;;;6.00;2.47;;;7.60;99.90;;;;;;494105;241;27655;-72
2023/11/16 00:03:54;;;;;;;3.03;1.83;;;7.50;99.90;;;;;;494121;241;27976;-72
2023/11/16 00:05:55;;;;;;;4.07;2.40;;;7.50;99.90;;;;;;494109;241;27820;-74
2023/11/16 00:07:57;;;;;;;5.47;1.97;;;7.50;99.90;;;;;;494097;241;27983;-73
2023/11/16 00:09:57;;;;;;;2.20;1.50;;;7.50;99.90;;;;;;493829;241;27863;-72
2023/11/16 00:11:59;;;;;;;6.03;2.10;;;7.50;99.90;;;;;;493998;241;27797;-73
2023/11/16 00:14:00;;;;;;;4.30;1.90;;;7.50;99.90;;;;;;494086;237;28168;-72
2023/11/16 00:16:02;;;;;;;2.23;1.70;;;7.50;99.90;;;;;;494118;241;28122;-72
2023/11/16 00:18:05;;;;;;;2.40;1.67;;;7.40;99.90;;;;;;494018;241;28900;-71
2023/11/16 00:20:04;;;;;;;5.10;1.70;;;7.40;99.90;;;;;;493849;241;27864;-72
2023/11/16 00:22:05;;;;;;;5.40;2.13;;;7.40;99.90;;;;;;494123;241;28063;-73
2023/11/16 00:24:06;;;;;;;4.27;2.13;;;7.40;99.90;;;;;;494129;241;28311;-72
2023/11/16 00:26:10;;;;;;;2.40;1.97;;;7.40;99.90;;;;;;494072;241;28167;-73
2023/11/16 00:28:09;;;;;;;6.90;1.87;;;7.40;99.90;;;;;;493796;241;28379;-72
2023/11/16 00:30:10;;;;;;;4.27;1.63;;;7.40;99.90;;;;;;493986;241;28542;-72
2023/11/16 00:32:11;;;;;;;7.90;1.73;;;7.50;99.90;;;;;;494036;241;28511;-73
2023/11/16 00:34:12;;;;;;;3.93;1.73;;;7.40;99.90;;;;;;494054;241;28951;-72
2023/11/16 00:36:14;;;;;;;6.62;1.98;;;7.40;99.90;;;;;;494150;237;28423;-72
2023/11/16 00:38:15;;;;;;;6.17;1.97;;;7.40;99.90;;;;;;494121;241;27455;-72
2023/11/16 00:40:17;;;;;;;4.10;1.97;;;7.40;99.90;;;;;;494008;241;27852;-72
2023/11/16 00:42:17;;;;;;;4.37;2.40;;;7.40;99.90;;;;;;493972;241;27983;-74
2023/11/16 00:44:19;;;;;;;4.27;2.03;;;7.40;99.90;;;;;;494039;241;27710;-72
2023/11/16 00:46:21;;;;;;;7.77;2.00;;;7.40;99.90;;;;;;494089;241;28176;-72
2023/11/16 00:48:21;;;;;;;2.30;2.10;;;7.40;99.90;;;;;;493969;241;28179;-71
2023/11/16 00:50:22;;;;;;;6.80;2.10;;;7.40;99.90;;;;;;494114;241;27994;-72
2023/11/16 00:52:24;;;;;;;8.47;2.67;;;7.40;99.90;;;;;;494150;241;27952;-72
2023/11/16 00:54:25;;;;;;;9.77;2.73;;;7.40;99.90;;;;;;494095;241;27479;-71
2023/11/16 00:56:26;;;;;;;11.93;3.97;;;7.40;99.90;;;;;;494123;241;28069;-72
2023/11/16 00:58:27;;;;;;;6.53;4.07;;;7.40;99.90;;;;;;494151;241;27877;-71
2023/11/16 01:00:31;;;;;;;5.33;4.20;;;7.40;99.90;;;;;;494130;241;27943;-72
2023/11/16 01:02:30;;;;;;;10.60;6.43;;;7.50;99.90;;;;;;493824;237;28659;-72
2023/11/16 01:04:34;;;;;;;9.53;7.37;;;7.50;99.90;;;;;;494102;241;28251;-71
2023/11/16 01:06:32;;;;;;;11.27;5.87;;;7.50;99.90;;;;;;493772;241;28489;-72
2023/11/16 01:08:36;;;;;;;3.70;3.40;;;7.50;99.90;;;;;;494016;241;28484;-74
2023/11/16 01:10:37;;;;;;;7.63;4.03;;;7.40;99.90;;;;;;493765;241;27696;-72
2023/11/16 01:12:36;;;;;;;8.43;3.90;;;7.50;99.90;;;;;;493849;241;27976;-71
2023/11/16 01:14:39;;;;;;;6.33;2.77;;;7.50;99.90;;;;;;494017;241;27840;-72
2023/11/16 01:16:42;;;;;;;5.40;2.30;;;7.50;99.90;;;;;;493871;241;27987;-72
2023/11/16 01:18:52;;;;;;;3.90;2.70;;;7.50;99.90;;;;;;494019;241;28088;-71
2023/11/16 01:20:44;;;;;;;8.03;3.13;;;7.50;99.90;;;;;;493332;241;28085;-73
2023/11/16 01:22:50;;;;;;;8.33;3.00;;;7.50;99.90;;;;;;494095;241;28046;-72
2023/11/16 01:24:46;;;;;;;3.50;2.70;;;7.50;99.90;;;;;;493566;241;27875;-72
2023/11/16 01:26:47;;;;;;;7.23;2.73;;;7.50;99.90;;;;;;494002;241;28182;-72
2023/11/16 01:29:01;;;;;;;3.13;2.13;;;7.50;99.90;;;;;;494030;241;27965;-72
2023/11/16 01:30:53;;;;;;;7.50;3.40;;;7.50;99.90;;;;;;493273;241;27956;-72
2023/11/16 01:32:54;;;;;;;4.07;2.57;;;7.50;99.90;;;;;;494112;241;28668;-73
2023/11/16 01:34:55;;;;;;;4.33;3.20;;;7.50;99.90;;;;;;494052;241;27934;-72
2023/11/16 01:36:57;;;;;;;8.57;2.57;;;7.50;99.90;;;;;;494052;241;28016;-73
2023/11/16 01:38:58;;;;;;;4.73;2.53;;;7.50;99.90;;;;;;494002;241;27956;-71
2023/11/16 01:40:59;;;;;;;5.67;2.43;;;7.50;99.90;;;;;;494004;241;27723;-72
2023/11/16 01:43:00;;;;;;;10.70;2.90;;;7.50;99.90;;;;;;494036;241;27931;-73
2023/11/16 01:45:02;;;;;;;3.40;2.40;;;7.50;99.90;;;;;;494113;241;27815;-72
2023/11/16 01:47:03;;;;;;;5.03;2.17;;;7.50;99.90;;;;;;494126;241;27975;-72
2023/11/16 01:49:04;;;;;;;4.63;3.20;;;7.50;99.90;;;;;;494020;241;28109;-74
2023/11/16 01:51:05;;;;;;;3.90;2.80;;;7.50;99.90;;;;;;494022;241;28428;-72
2023/11/16 01:53:10;;;;;;;4.90;2.10;;;7.40;99.90;;;;;;493511;241;28464;-72
2023/11/16 01:55:08;;;;;;;9.30;3.37;;;7.50;99.90;;;;;;493339;241;28450;-72
2023/11/16 01:57:09;;;;;;;7.20;3.20;;;7.50;99.90;;;;;;493923;241;28203;-72
2023/11/16 01:59:10;;;;;;;6.00;2.40;;;7.40;99.90;;;;;;494038;241;28479;-72
2023/11/16 02:01:12;;;;;;;4.97;2.03;;;7.40;99.90;;;;;;494028;241;27571;-72
2023/11/16 02:03:13;;;;;;;10.93;3.27;;;7.40;99.90;;;;;;494024;241;28048;-72
2023/11/16 02:05:14;;;;;;;10.50;2.33;;;7.40;99.90;;;;;;493993;241;27938;-72
2023/11/16 02:07:15;;;;;;;3.43;2.20;;;7.30;99.90;;;;;;494114;241;28022;-72
2023/11/16 02:09:18;;;;;;;5.47;2.40;;;7.30;99.90;;;;;;494029;241;27738;-72
2023/11/16 02:11:18;;;;;;;3.60;2.60;;;7.30;99.90;;;;;;493990;241;28415;-72
2023/11/16 02:13:21;;;;;;;4.83;2.80;;;7.30;99.90;;;;;;494101;241;27873;-71
2023/11/16 02:15:21;;;;;;;3.30;2.60;;;7.30;99.90;;;;;;494012;237;28886;-73
2023/11/16 02:17:23;;;;;;;4.80;1.90;;;7.30;99.90;;;;;;494066;241;28101;-72
2023/11/16 02:19:23;;;;;;;3.60;2.00;;;7.30;99.90;;;;;;493932;241;28432;-72
2023/11/16 02:21:26;;;;;;;4.83;2.10;;;7.30;99.90;;;;;;494010;241;28031;-71
2023/11/16 02:23:25;;;;;;;6.63;2.57;;;7.30;99.90;;;;;;493889;241;28395;-72
2023/11/16 02:25:27;;;;;;;12.07;2.63;;;7.30;99.90;;;;;;494133;241;28205;-74
2023/11/16 02:27:28;;;;;;;4.63;2.20;;;7.40;99.90;;;;;;494122;241;28641;-72
2023/11/16 02:29:29;;;;;;;6.20;2.93;;;7.40;99.90;;;;;;494096;241;27995;-73
2023/11/16 02:31:30;;;;;;;3.60;2.40;;;7.30;99.90;;;;;;494015;241;27901;-72
2023/11/16 02:33:32;;;;;;;10.07;3.50;;;7.30;99.90;;;;;;494013;241;28040;-72
2023/11/16 02:35:33;;;;;;;8.97;2.80;;;7.30;99.90;;;;;;494033;241;27969;-73
2023/11/16 02:37:35;;;;;;;5.07;2.10;;;7.30;99.90;;;;;;494003;241;28103;-72
2023/11/16 02:39:35;;;;;;;6.90;2.40;;;7.20;99.90;;;;;;494018;241;28013;-71
2023/11/16 02:41:39;;;;;;;3.10;2.17;;;7.20;99.90;;;;;;494011;241;27880;-73
2023/11/16 02:43:38;;;;;;;4.73;2.10;;;7.20;99.90;;;;;;493899;241;27970;-71
2023/11/16 02:45:39;;;;;;;8.43;2.00;;;7.20;99.90;;;;;;494105;241;28065;-72
2023/11/16 02:47:40;;;;;;;2.00;1.90;;;7.20;99.90;;;;;;494124;241;27808;-72
2023/11/16 02:49:45;;;;;;;6.00;2.30;;;7.20;99.90;;;;;;494097;241;27865;-72
2023/11/16 02:51:46;;;;;;;2.63;2.07;;;7.20;99.90;;;;;;493997;241;28097;-72
2023/11/16 02:53:47;;;;;;;5.43;2.40;;;7.30;99.90;;;;;;494044;241;27937;-73
2023/11/16 02:55:48;;;;;;;4.27;2.50;;;7.30;99.90;;;;;;494011;241;28294;-72
2023/11/16 02:57:50;;;;;;;7.10;2.57;;;7.30;99.90;;;;;;494013;241;27690;-73
2023/11/16 02:59:51;;;;;;;3.23;2.33;;;7.30;99.90;;;;;;494009;241;27618;-72
2023/11/16 03:01:52;;;;;;;3.70;2.33;;;7.40;99.90;;;;;;494045;241;27931;-72
2023/11/16 03:03:54;;;;;;;3.83;2.50;;;7.40;99.90;;;;;;494026;241;28034;-72
2023/11/16 03:05:55;;;;;;;10.27;2.80;;;7.40;99.90;;;;;;493975;241;28887;-72
2023/11/16 03:07:56;;;;;;;7.30;2.20;;;7.40;99.90;;;;;;493997;241;28858;-72
2023/11/16 03:09:57;;;;;;;7.70;2.77;;;7.40;99.90;;;;;;494032;241;28056;-74
2023/11/16 03:11:59;;;;;;;3.47;2.40;;;7.40;99.90;;;;;;494052;241;27985;-72
2023/11/16 03:14:00;;;;;;;4.33;2.40;;;7.40;99.90;;;;;;493925;241;28441;-72
2023/11/16 03:16:01;;;;;;;6.80;2.43;;;7.40;99.90;;;;;;494126;241;28429;-72
2023/11/16 03:18:02;;;;;;;3.93;2.40;;;7.50;99.90;;;;;;494082;241;28370;-72
2023/11/16 03:20:03;;;;;;;7.03;3.20;;;7.50;99.90;;;;;;494033;241;28173;-73
2023/11/16 03:22:05;;;;;;;7.83;2.30;;;7.50;99.90;;;;;;494022;241;28565;-72
2023/11/16 03:24:06;;;;;;;7.63;3.13;;;7.50;99.90;;;;;;494059;241;28004;-72
2023/11/16 03:26:07;;;;;;;6.27;2.70;;;7.40;99.90;;;;;;494044;241;27819;-72
2023/11/16 03:28:08;;;;;;;6.50;2.80;;;7.40;99.90;;;;;;494049;241;28422;-72
2023/11/16 03:30:10;;;;;;;6.43;3.07;;;7.50;99.90;;;;;;494041;241;28072;-72
2023/11/16 03:32:11;;;;;;;10.43;2.93;;;7.40;99.90;;;;;;494040;241;28806;-72
2023/11/16 03:34:13;;;;;;;3.97;2.37;;;7.40;99.90;;;;;;494056;241;27978;-72
2023/11/16 03:36:13;;;;;;;9.90;2.63;;;7.40;99.90;;;;;;493949;241;27982;-72
2023/11/16 03:38:15;;;;;;;6.00;2.77;;;7.40;99.90;;;;;;494053;241;27721;-72
2023/11/16 03:40:17;;;;;;;7.23;3.03;;;7.40;99.90;;;;;;494000;241;27973;-72
2023/11/16 03:42:18;;;;;;;10.03;3.60;;;7.50;99.90;;;;;;494058;241;27878;-72
2023/11/16 03:44:18;;;;;;;7.13;2.90;;;7.40;99.90;;;;;;494067;241;28027;-73
2023/11/16 03:46:20;;;;;;;6.60;2.77;;;7.40;99.90;;;;;;494134;241;27964;-74
2023/11/16 03:48:22;;;;;;;3.97;2.60;;;7.50;99.90;;;;;;493995;241;27710;-72
2023/11/16 03:50:22;;;;;;;6.30;2.40;;;7.40;99.90;;;;;;494052;241;28462;-72
2023/11/16 03:52:23;;;;;;;3.87;2.20;;;7.40;99.90;;;;;;494029;241;28464;-72
2023/11/16 03:54:25;;;;;;;6.60;2.87;;;7.40;99.90;;;;;;494047;241;28464;-72
2023/11/16 03:56:26;;;;;;;5.50;2.50;;;7.40;99.90;;;;;;494084;241;28454;-74
2023/11/16 03:58:27;;;;;;;3.53;2.70;;;7.40;99.90;;;;;;494154;241;27922;-72
2023/11/16 04:00:30;;;;;;;6.00;3.23;;;7.50;99.90;;;;;;494143;241;27948;-72
2023/11/16 04:02:30;;;;;;;6.70;3.37;;;7.50;99.90;;;;;;494023;241;27932;-72
2023/11/16 04:04:31;;;;;;;5.97;3.07;;;7.50;99.90;;;;;;494148;241;28635;-72
2023/11/16 04:06:32;;;;;;;4.33;2.60;;;7.50;99.90;;;;;;494169;241;28663;-73
2023/11/16 04:08:33;;;;;;;7.37;3.07;;;7.50;99.90;;;;;;494124;241;28010;-72
2023/11/16 04:10:35;;;;;;;5.80;2.87;;;7.50;99.90;;;;;;494074;241;28471;-71
2023/11/16 04:12:37;;;;;;;6.83;2.90;;;7.50;99.90;;;;;;494058;241;28077;-72
2023/11/16 04:14:37;;;;;;;5.20;2.70;;;7.50;99.90;;;;;;493981;241;28182;-72
2023/11/16 04:16:39;;;;;;;6.70;2.73;;;7.50;99.90;;;;;;494164;241;28426;-72
2023/11/16 04:18:40;;;;;;;7.63;2.90;;;7.50;99.90;;;;;;494165;241;28061;-72
2023/11/16 04:20:41;;;;;;;5.23;2.33;;;7.40;99.90;;;;;;494127;237;27951;-72
2023/11/16 04:22:43;;;;;;;10.50;3.67;;;7.50;99.90;;;;;;494177;241;27980;-73
2023/11/16 04:24:44;;;;;;;11.33;3.83;;;7.40;99.90;;;;;;494137;241;27997;-72
2023/11/16 04:26:48;;;;;;;6.23;3.60;;;7.40;99.90;;;;;;494095;241;27993;-72
2023/11/16 04:28:46;;;;;;;7.13;2.90;;;7.40;99.90;;;;;;493764;241;27963;-72
2023/11/16 04:30:47;;;;;;;4.20;3.30;;;7.50;99.90;;;;;;494042;241;28009;-72
2023/11/16 04:32:50;;;;;;;5.37;3.17;;;7.50;99.90;;;;;;494063;241;27979;-74
2023/11/16 04:34:50;;;;;;;6.20;2.60;;;7.50;99.90;;;;;;493981;241;27941;-71
2023/11/16 04:36:53;;;;;;;4.53;3.33;;;7.40;99.90;;;;;;494004;241;27846;-72
2023/11/16 04:38:55;;;;;;;4.50;3.00;;;7.40;99.90;;;;;;493885;241;28057;-72
2023/11/16 04:40:53;;;;;;;9.50;3.90;;;7.40;99.90;;;;;;493872;241;27699;-72
2023/11/16 04:42:55;;;;;;;7.90;3.37;;;7.50;99.90;;;;;;494121;241;28474;-73
2023/11/16 04:44:56;;;;;;;5.53;2.70;;;7.50;99.90;;;;;;494126;241;28139;-72
2023/11/16 04:46:57;;;;;;;6.33;3.50;;;7.50;99.90;;;;;;494091;241;28476;-72
2023/11/16 04:48:59;;;;;;;11.57;3.43;;;7.50;99.90;;;;;;494078;241;28248;-74
2023/11/16 04:51:03;;;;;;;8.63;4.10;;;7.40;99.90;;;;;;494060;241;27942;-72
2023/11/16 04:53:01;;;;;;;7.07;3.33;;;7.50;99.90;;;;;;493710;241;27740;-73
2023/11/16 04:55:03;;;;;;;11.33;4.13;;;7.50;99.90;;;;;;494125;237;28011;-72
2023/11/16 04:57:03;;;;;;;6.30;3.80;;;7.40;99.90;;;;;;493991;241;27935;-72
2023/11/16 04:59:05;;;;;;;7.53;3.40;;;7.40;99.90;;;;;;493991;241;27965;-74
2023/11/16 05:01:06;;;;;;;9.50;4.77;;;7.40;99.90;;;;;;494122;241;27934;-72
2023/11/16 05:03:07;;;;;;;9.20;4.47;;;7.50;99.90;;;;;;494098;241;27964;-72
2023/11/16 05:05:09;;;;;;;9.10;5.57;;;7.40;99.90;;;;;;494106;241;27630;-72
2023/11/16 05:07:10;;;;;;;14.00;5.53;;;7.40;99.90;;;;;;494012;241;28017;-72
2023/11/16 05:09:11;;;;;;;8.00;4.37;;;7.40;99.90;;;;;;494031;237;27986;-73
2023/11/16 05:11:12;;;;;;;12.30;4.10;;;7.50;99.90;;;;;;494033;241;27957;-72
2023/11/16 05:13:16;;;;;;;15.37;5.83;;;7.50;99.90;;;;;;494012;241;27987;-72
2023/11/16 05:15:16;;;;;;;7.60;4.43;;;7.50;99.90;;;;;;493778;241;28453;-72
2023/11/16 05:17:16;;;;;;;6.80;4.90;;;7.50;99.90;;;;;;493797;241;28589;-72
2023/11/16 05:19:17;;;;;;;8.10;5.03;;;7.50;99.90;;;;;;493859;241;28581;-72
2023/11/16 05:21:18;;;;;;;7.73;4.80;;;7.50;99.90;;;;;;494016;241;27628;-72
2023/11/16 05:23:20;;;;;;;11.33;5.60;;;7.50;99.90;;;;;;494128;241;27760;-72
2023/11/16 05:25:21;;;;;;;11.97;5.00;;;7.50;99.90;;;;;;494114;241;28859;-74
2023/11/16 05:27:22;;;;;;;7.07;4.60;;;7.50;99.90;;;;;;494059;241;27978;-72
2023/11/16 05:29:23;;;;;;;14.53;6.00;;;7.50;99.90;;;;;;494020;237;27982;-73
2023/11/16 05:31:25;;;;;;;8.50;5.10;;;7.50;99.90;;;;;;494112;241;28811;-71
2023/11/16 05:33:27;;;;;;;8.98;5.57;;;7.50;99.90;;;;;;494009;241;28032;-72
2023/11/16 05:35:27;;;;;;;12.63;5.35;;;7.50;99.90;;;;;;494037;241;27504;-73
2023/11/16 05:37:28;;;;;;;11.50;5.50;;;7.50;99.90;;;;;;494131;241;27990;-72
2023/11/16 05:39:30;;;;;;;8.20;5.13;;;7.50;99.90;;;;;;494072;237;27509;-72
2023/11/16 05:41:31;;;;;;;6.27;4.70;;;7.50;99.90;;;;;;494027;241;27835;-72
2023/11/16 05:43:33;;;;;;;13.13;4.97;;;7.50;99.90;;;;;;494044;241;27603;-72
2023/11/16 05:45:33;;;;;;;9.23;5.03;;;7.50;99.90;;;;;;494007;241;27826;-73
2023/11/16 05:47:35;;;;;;;6.50;4.43;;;7.50;99.90;;;;;;494010;241;27934;-71
2023/11/16 05:49:36;;;;;;;14.07;4.57;;;7.50;99.90;;;;;;494079;241;28692;-73
2023/11/16 05:51:37;;;;;;;5.90;4.53;;;7.50;99.90;;;;;;494021;241;28107;-72
2023/11/16 05:53:38;;;;;;;6.03;4.07;;;7.50;99.90;;;;;;494144;241;28194;-72
2023/11/16 05:55:40;;;;;;;9.00;4.57;;;7.50;99.90;;;;;;494088;241;27551;-72
2023/11/16 05:57:42;;;;;;;9.18;4.35;;;7.50;99.90;;;;;;494122;241;27666;-72
2023/11/16 05:59:42;;;;;;;11.67;4.00;;;7.50;99.90;;;;;;494068;241;28031;-71
2023/11/16 06:01:44;;;;;;;11.43;5.60;;;7.50;99.90;;;;;;494053;241;28576;-74
2023/11/16 06:03:45;;;;;;;5.30;4.13;;;7.50;99.90;;;;;;494017;241;28290;-72
2023/11/16 06:05:46;;;;;;;5.43;4.50;;;7.50;99.90;;;;;;494081;241;28513;-71
2023/11/16 06:07:47;;;;;;;8.57;4.60;;;7.50;99.90;;;;;;494010;239;28796;-72
2023/11/16 06:09:49;;;;;;;9.70;5.23;;;7.50;99.90;;;;;;493986;241;28184;-72
2023/11/16 06:11:50;;;;;;;7.40;3.78;;;7.50;99.90;;;;;;494034;241;27986;-73
2023/11/16 06:13:54;;;;;;;11.00;4.63;;;7.50;99.90;;;;;;494019;241;27537;-72
2023/11/16 06:15:52;;;;;;;15.23;4.73;;;7.50;99.90;;;;;;493742;241;28946;-72
2023/11/16 06:18:03;;;;;;;9.30;4.10;;;7.50;99.90;;;;;;494102;241;28267;-72
2023/11/16 06:19:55;;;;;;;8.67;4.70;;;7.50;99.90;;;;;;493308;241;27621;-72
2023/11/16 06:21:56;;;;;;;10.50;4.77;;;7.50;99.90;;;;;;494033;241;27978;-72
2023/11/16 06:23:57;;;;;;;10.23;4.67;;;7.50;99.90;;;;;;494115;241;27805;-72
2023/11/16 06:25:58;;;;;;;13.67;5.53;;;7.50;99.90;;;;;;494093;241;28560;-72
2023/11/16 06:28:00;;;;;;;10.03;3.93;;;7.50;99.90;;;;;;494059;241;28995;-72
2023/11/16 06:30:01;;;;;;;8.40;4.50;;;7.50;99.90;;;;;;494113;241;28588;-72
2023/11/16 06:32:05;;;;;;;7.10;4.23;;;7.50;99.90;;;;;;494064;241;28135;-72
2023/11/16 06:34:03;;;;;;;7.73;3.50;;;7.50;99.90;;;;;;493838;240;28595;-72
2023/11/16 06:36:05;;;;;;;12.50;4.63;;;7.50;99.90;;;;;;494013;241;28172;-72
2023/11/16 06:38:09;;;;;;;8.50;3.80;;;7.50;99.90;;;;;;494133;241;27964;-73
2023/11/16 06:40:10;;;;;;;12.60;4.90;;;7.50;99.90;;;;;;493873;241;27951;-72
2023/11/16 06:42:11;;;;;;;11.57;3.73;;;7.50;99.90;;;;;;494112;241;27829;-72
2023/11/16 06:44:19;;;;;;;11.10;3.77;;;7.40;99.90;;;;;;494113;241;27856;-72
2023/11/16 06:46:15;;;;;;;7.90;4.67;;;7.50;99.90;;;;;;493524;241;29415;-72
2023/11/16 06:48:15;;;;;;;8.73;4.40;;;7.50;99.90;;;;;;493918;241;28097;-72
2023/11/16 06:50:16;;;;;;;12.30;4.43;;;7.50;99.90;;;;;;494048;241;28438;-73
2023/11/16 06:52:19;;;;;;;6.10;3.67;;;7.50;99.90;;;;;;494078;239;28173;-72
2023/11/16 06:54:21;;;;;;;8.27;4.70;;;7.50;99.90;;;;;;494042;241;28091;-72
2023/11/16 06:56:20;;;;;;;6.30;4.20;;;7.40;99.90;;;;;;493877;241;28036;-74
2023/11/16 06:58:22;;;;;;;5.53;3.43;;;7.50;99.90;;;;;;494094;241;28078;-72
2023/11/16 07:00:23;;;;;;;4.47;3.60;;;7.50;99.90;;;;;;493958;241;27622;-72
2023/11/16 07:02:24;;;;;;;16.53;5.60;;;7.50;99.90;;;;;;494078;241;27990;-72
2023/11/16 07:04:25;;;;;;;8.57;3.53;;;7.50;99.90;;;;;;494125;237;27985;-72
2023/11/16 07:06:29;;;;;;;5.07;3.50;;;7.50;99.90;;;;;;494140;241;28181;-72
2023/11/16 07:08:28;;;;;;;5.80;3.40;;;7.50;99.90;;;;;;493952;239;27923;-72
2023/11/16 07:10:29;;;;;;;5.63;3.27;;;7.50;99.90;;;;;;494146;241;27829;-72
2023/11/16 07:12:30;;;;;;;5.57;3.90;;;7.50;99.90;;;;;;494130;241;27967;-72
2023/11/16 07:14:31;;;;;;;7.70;3.43;;;7.60;99.90;;;;;;494126;241;27842;-72
2023/11/16 07:16:33;;;;;;;8.63;4.03;;;7.60;99.90;;;;;;494048;241;27749;-75
2023/11/16 07:18:34;;;;;;;9.60;4.30;;;7.60;99.90;;;;;;494051;241;28818;-72
2023/11/16 07:20:38;;;;;;;7.00;4.10;;;7.60;99.90;;;;;;494049;241;28475;-73
2023/11/16 07:22:40;;;;;;;6.83;4.20;;;7.60;99.90;;;;;;494071;241;27542;-72
2023/11/16 07:24:43;;;;;;;12.23;4.00;;;7.60;99.90;;;;;;494084;241;27911;-72
2023/11/16 07:26:42;;;;;;;10.90;4.17;;;7.60;99.90;;;;;;493886;241;27931;-71
2023/11/16 07:28:44;;;;;;;7.23;3.60;;;7.60;99.90;;;;;;494128;241;28494;-73
2023/11/16 07:30:44;;;;;;;10.53;3.50;;;7.60;99.90;;;;;;494133;241;28231;-72
2023/11/16 07:32:45;;;;;;;6.63;4.40;;;7.60;99.90;;;;;;494186;241;28453;-73
2023/11/16 07:34:47;;;;;;;7.10;3.30;;;7.70;99.90;;;;;;494111;241;28398;-72
2023/11/16 07:36:48;;;;;;;8.73;4.03;;;7.70;99.90;;;;;;494011;241;28487;-72
2023/11/16 07:38:49;;;;;;;6.63;3.27;;;7.70;99.90;;;;;;494140;237;28105;-73
2023/11/16 07:40:51;;;;;;;13.00;3.90;;;7.70;99.90;;;;;;494029;241;27827;-72
2023/11/16 07:42:52;;;;;;;9.23;4.07;;;7.70;99.90;;;;;;493964;241;27872;-72
2023/11/16 07:44:53;;;;;;;10.13;3.60;;;7.70;99.90;;;;;;494117;241;27859;-74
2023/11/16 07:46:54;;;;;;;6.63;3.10;;;7.80;99.90;;;;;;494032;241;27920;-72
2023/11/16 07:48:56;;;;;;;8.93;3.50;;;7.80;99.90;;;;;;494040;241;27592;-73
2023/11/16 07:50:57;;;;;;;7.10;3.27;;;7.80;99.90;;;;;;494056;241;28035;-73
2023/11/16 07:52:59;;;;;;;6.47;3.80;;;7.80;99.90;;;;;;494097;241;27720;-72
2023/11/16 07:55:00;;;;;;;11.50;4.13;;;7.80;99.90;;;;;;494042;241;27973;-73
2023/11/16 07:57:02;;;;;;;9.73;3.43;;;7.80;99.90;;;;;;494105;241;28030;-72
2023/11/16 07:59:02;;;;;;;5.53;3.67;;;7.80;99.90;;;;;;493893;237;27963;-72
2023/11/16 08:01:11;;;;;;;5.93;2.90;;;7.80;99.90;;;;;;494019;241;28030;-72
2023/11/16 08:05:26;;;;;;;6.30;4.03;;;7.90;99.90;;;;;;494064;241;28402;-72
2023/11/16 08:07:27;;;;;;;4.90;2.90;;;7.90;99.90;;;;;;494162;241;28617;-72
2023/11/16 08:09:33;;;;;;;11.30;3.63;;;7.90;99.90;;;;;;494118;241;27458;-73
2023/11/16 08:11:31;;;;;;;5.30;3.00;;;7.90;99.90;;;;;;493686;241;27848;-72
2023/11/16 08:13:32;;;;;;;10.70;3.37;;;7.90;99.90;;;;;;494082;241;28002;-76
2023/11/16 08:15:32;;;;;;;5.50;2.97;;;7.90;99.90;;;;;;494069;241;28115;-73
2023/11/16 08:17:34;;;;;;;9.00;3.03;;;8.00;99.90;;;;;;494080;241;27996;-73
2023/11/16 08:19:35;;;;;;;7.30;3.53;;;8.00;99.90;;;;;;494054;241;27804;-72
2023/11/16 08:21:41;;;;;;;7.83;3.07;;;8.00;99.90;;;;;;494074;241;27975;-72
2023/11/16 08:23:43;;;;;;;6.93;3.17;;;8.00;99.90;;;;;;493780;241;27966;-73
2023/11/16 08:25:42;;;;;;;8.10;3.00;;;8.00;99.90;;;;;;493845;241;28573;-73
2023/11/16 08:27:43;;;;;;;5.90;2.90;;;8.00;99.90;;;;;;493993;237;28418;-73
2023/11/16 08:29:44;;;;;;;9.50;3.37;;;8.00;99.90;;;;;;493970;241;28271;-73
2023/11/16 08:31:52;;;;;;;6.70;3.17;;;8.00;99.90;;;;;;494119;241;28406;-72
2023/11/16 08:33:47;;;;;;;7.63;3.43;;;8.10;99.90;;;;;;493424;241;28547;-74
2023/11/16 08:35:48;;;;;;;10.53;3.03;;;8.10;99.90;;;;;;493984;241;27988;-72
2023/11/16 08:37:49;;;;;;;3.83;2.60;;;8.10;99.90;;;;;;493978;241;27941;-72
2023/11/16 08:39:51;;;;;;;4.50;2.77;;;8.10;99.90;;;;;;493993;241;27846;-73
2023/11/16 08:41:52;;;;;;;4.63;3.30;;;8.10;99.90;;;;;;494052;241;27749;-73
2023/11/16 08:43:53;;;;;;;6.90;3.10;;;8.10;99.90;;;;;;494063;241;27818;-72
2023/11/16 08:45:55;;;;;;;6.50;2.90;;;8.20;99.90;;;;;;494015;241;28144;-73
2023/11/16 08:47:57;;;;;;;9.60;3.83;;;8.20;99.90;;;;;;494066;241;27980;-72
2023/11/16 08:49:57;;;;;;;10.00;3.67;;;8.20;99.90;;;;;;493970;241;27963;-72
2023/11/16 08:52:01;;;;;;;6.67;3.27;;;8.20;99.90;;;;;;494015;239;27753;-73
2023/11/16 08:54:07;;;;;;;5.13;2.73;;;8.20;99.90;;;;;;494112;241;28011;-73
2023/11/16 08:56:03;;;;;;;4.60;3.00;;;8.20;99.90;;;;;;493598;241;27961;-73
2023/11/16 08:58:06;;;;;;;13.20;3.37;;;8.20;99.90;;;;;;493992;241;27848;-73
2023/11/16 09:02:25;;;;;;;7.63;3.93;;;8.30;99.90;;;;;;494087;237;27983;-73
2023/11/16 09:04:28;;;;;;;4.33;2.60;;;8.30;99.90;;;;;;494033;241;27835;-72
2023/11/16 09:06:30;;;;;;;6.43;2.70;;;8.40;99.90;;;;;;493932;241;28340;-73
2023/11/16 09:08:29;;;;;;;5.63;2.47;;;8.40;99.90;;;;;;493893;241;28449;-73
2023/11/16 09:10:33;;;;;;;8.10;3.27;;;8.30;99.90;;;;;;494030;241;27992;-73
2023/11/16 09:12:35;;;;;;;6.80;2.60;;;8.30;99.90;;;;;;494015;241;28520;-74
2023/11/16 09:14:36;;;;;;;6.93;2.60;;;8.30;99.90;;;;;;493973;241;28259;-72
2023/11/16 09:16:39;;;;;;;5.00;2.57;;;8.40;99.90;;;;;;494046;237;28448;-73
2023/11/16 09:18:41;;;;;;;5.07;2.80;;;8.40;99.90;;;;;;493900;241;28419;-74
2023/11/16 09:20:41;;;;;;;4.80;2.50;;;8.40;99.90;;;;;;493803;241;27585;-73
2023/11/16 09:22:42;;;;;;;8.30;2.30;;;8.30;99.90;;;;;;493994;241;27907;-73
2023/11/16 09:24:44;;;;;;;3.67;2.40;;;8.30;99.90;;;;;;493998;241;28134;-73
2023/11/16 09:26:44;;;;;;;7.40;2.80;;;8.30;99.90;;;;;;493911;241;27899;-73
2023/11/16 09:28:44;;;;;;;5.03;2.00;;;8.40;99.90;;;;;;493987;241;27704;-73
2023/11/16 09:30:46;;;;;;;8.00;3.17;;;8.40;99.90;;;;;;494062;241;28035;-73
2023/11/16 09:32:47;;;;;;;4.10;2.20;;;8.40;99.90;;;;;;494008;241;27743;-73
2023/11/16 09:34:49;;;;;;;2.83;1.90;;;8.40;99.90;;;;;;494032;241;28012;-72
2023/11/16 09:36:50;;;;;;;7.07;2.30;;;8.40;99.90;;;;;;493961;241;28003;-72
2023/11/16 09:38:51;;;;;;;3.20;2.30;;;8.40;99.90;;;;;;493926;241;27897;-73
2023/11/16 09:40:52;;;;;;;5.40;2.40;;;8.50;99.90;;;;;;494013;241;27958;-73
2023/11/16 09:43:30;;;;;;;4.20;2.20;;;8.50;99.90;;;;;;494034;241;27966;-73
2023/11/16 09:45:00;;;;;;;10.13;2.20;;;8.50;99.90;;;;;;491865;241;28587;-72
2023/11/16 09:47:02;;;;;;;9.57;2.37;;;8.50;99.90;;;;;;494126;241;27970;-72
2023/11/16 09:49:05;;;;;;;5.60;2.50;;;8.50;99.90;;;;;;494000;241;27836;-74
2023/11/16 09:51:05;;;;;;;8.13;2.70;;;8.50;99.90;;;;;;493924;241;27458;-73
2023/11/16 09:53:06;;;;;;;5.63;2.30;;;8.50;99.90;;;;;;494008;241;28059;-72
2023/11/16 09:55:10;;;;;;;5.37;2.53;;;8.50;99.90;;;;;;494104;241;27702;-72
2023/11/16 09:57:14;;;;;;;6.70;2.10;;;8.50;99.90;;;;;;494067;241;27545;-75
2023/11/16 09:59:17;;;;;;;5.63;2.67;;;8.50;99.90;;;;;;493721;241;27683;-72
2023/11/16 10:01:17;;;;;;;4.27;2.63;;;8.50;99.90;;;;;;493881;241;28611;-72
2023/11/16 10:03:19;;;;;;;4.37;2.50;;;8.60;99.90;;;;;;494021;241;28237;-71
2023/11/16 10:05:19;;;;;;;7.90;2.40;;;8.50;99.90;;;;;;493889;241;28694;-73
2023/11/16 10:07:26;;;;;;;11.70;2.37;;;8.50;99.90;;;;;;494090;241;27825;-73
2023/11/16 10:09:33;;;;;;;6.20;2.20;;;8.50;99.90;;;;;;493843;241;27564;-73
2023/11/16 10:11:25;;;;;;;10.80;2.50;;;8.50;99.90;;;;;;493216;241;28033;-73
2023/11/16 10:13:27;;;;;;;6.70;2.47;;;8.50;99.90;;;;;;493861;241;27939;-72
2023/11/16 10:15:28;;;;;;;5.60;2.17;;;8.60;99.90;;;;;;493372;241;27951;-73
2023/11/16 10:17:29;;;;;;;8.73;2.20;;;8.60;99.90;;;;;;493727;241;28018;-73
2023/11/16 10:19:30;;;;;;;7.87;2.00;;;8.60;99.90;;;;;;494044;241;28592;-72
2023/11/16 10:21:31;;;;;;;3.80;1.87;;;8.60;99.90;;;;;;494021;241;28511;-73
2023/11/16 10:23:33;;;;;;;6.63;2.07;;;8.60;99.90;;;;;;494003;241;28194;-73
2023/11/16 10:25:34;;;;;;;6.17;1.93;;;8.60;99.90;;;;;;494010;241;28328;-72
2023/11/16 10:27:35;;;;;;;4.97;2.40;;;8.60;99.90;;;;;;494105;241;28438;-74
2023/11/16 10:29:36;;;;;;;4.17;2.00;;;8.60;99.90;;;;;;494129;241;28555;-73
2023/11/16 10:31:44;;;;;;;11.00;2.90;;;8.60;99.90;;;;;;494104;241;27935;-73
2023/11/16 10:33:39;;;;;;;4.53;2.20;;;8.60;99.90;;;;;;493592;241;27947;-73
2023/11/16 10:35:41;;;;;;;5.07;2.23;;;8.60;99.90;;;;;;494070;241;28344;-73
2023/11/16 10:37:42;;;;;;;6.00;2.00;;;8.60;99.90;;;;;;494068;241;27709;-74
2023/11/16 10:39:43;;;;;;;9.73;2.17;;;8.60;99.90;;;;;;494111;241;27903;-72
2023/11/16 10:41:44;;;;;;;3.13;1.70;;;8.60;99.90;;;;;;493945;237;28110;-72
2023/11/16 10:43:46;;;;;;;3.90;1.57;;;8.60;99.90;;;;;;494049;241;28011;-73